Time;durP1;ratioP1;P1;durP2;ratioP2;P2;SDS_P1;SDS_P2;PMS_P1;PMS_P2;Temp;Humidity;BMP_temperature;BMP_pressure;BME280_temperature;BME280_humidity;BME280_pressure;Samples;Min_cycle;Max_cycle;Signal;HPM_P1;HPM_P2
2021/09/20 00:00:56;;;;;;;0.30;0.20;;;18.40;73.90;;;;;;2246283;56;22117;-73
2021/09/20 00:03:23;;;;;;;0.68;0.30;;;18.40;73.90;;;;;;2223423;56;21092;-74
2021/09/20 00:05:49;;;;;;;0.90;0.30;;;18.40;74.00;;;;;;2222422;56;20993;-72
2021/09/20 00:08:15;;;;;;;0.82;0.40;;;18.40;74.00;;;;;;2223499;56;21007;-72
2021/09/20 00:10:42;;;;;;;0.82;0.35;;;18.40;73.90;;;;;;2204648;57;21017;-71
2021/09/20 00:13:08;;;;;;;1.05;0.40;;;18.40;73.90;;;;;;2325431;56;20990;-71
2021/09/20 00:15:34;;;;;;;0.47;0.30;;;18.40;74.60;;;;;;2222477;56;21100;-71
2021/09/20 00:18:00;;;;;;;0.93;0.40;;;18.40;73.90;;;;;;2223279;56;21064;-73
2021/09/20 00:20:27;;;;;;;0.70;0.30;;;18.40;73.90;;;;;;2227980;56;20977;-73
2021/09/20 00:22:53;;;;;;;1.10;0.30;;;18.40;73.90;;;;;;2222449;56;21002;-71
2021/09/20 00:25:19;;;;;;;0.80;0.30;;;18.40;74.00;;;;;;2309093;56;20975;-72
2021/09/20 00:27:46;;;;;;;0.37;0.20;;;18.40;74.00;;;;;;2222540;56;21589;-70
2021/09/20 00:30:12;;;;;;;0.55;0.30;;;18.40;74.00;;;;;;2223565;56;20979;-73
2021/09/20 00:32:38;;;;;;;1.27;0.20;;;18.40;73.90;;;;;;2223570;56;21041;-71
2021/09/20 00:35:06;;;;;;;0.60;0.30;;;18.40;73.90;;;;;;2226300;56;21006;-71
2021/09/20 00:37:32;;;;;;;0.40;0.20;;;18.40;73.90;;;;;;2219222;56;20986;-74
2021/09/20 00:39:59;;;;;;;0.52;0.22;;;18.40;73.90;;;;;;2226200;56;21114;-74
2021/09/20 00:42:25;;;;;;;0.50;0.30;;;18.40;73.90;;;;;;2222326;56;21021;-73
2021/09/20 00:44:51;;;;;;;1.33;0.40;;;18.40;73.80;;;;;;2223292;56;21530;-70
2021/09/20 00:47:18;;;;;;;0.50;0.20;;;18.40;73.70;;;;;;2224249;56;20997;-70
2021/09/20 00:49:44;;;;;;;1.23;0.43;;;18.50;73.80;;;;;;2224129;56;20997;-70
2021/09/20 00:52:11;;;;;;;0.35;0.22;;;18.50;73.80;;;;;;2226153;56;20982;-73
2021/09/20 00:54:37;;;;;;;0.60;0.30;;;18.40;73.80;;;;;;2224028;56;20973;-73
2021/09/20 00:57:03;;;;;;;2.62;0.30;;;18.40;73.80;;;;;;2226793;56;21031;-70
2021/09/20 00:59:29;;;;;;;0.82;0.37;;;18.40;73.90;;;;;;2222545;56;20989;-71
2021/09/20 01:01:56;;;;;;;1.25;0.40;;;18.40;73.90;;;;;;2223297;56;20973;-71
2021/09/20 01:04:23;;;;;;;1.25;0.40;;;18.40;73.90;;;;;;2224045;56;20945;-73
2021/09/20 01:06:49;;;;;;;2.80;0.40;;;18.50;73.90;;;;;;2409263;56;20992;-71
2021/09/20 01:09:16;;;;;;;1.40;0.43;;;18.40;73.80;;;;;;2445435;56;20939;-70
2021/09/20 01:11:43;;;;;;;0.75;0.37;;;18.40;73.90;;;;;;2282417;56;21051;-72
2021/09/20 01:14:09;;;;;;;0.25;0.20;;;18.50;74.00;;;;;;2290577;56;21104;-71
2021/09/20 01:16:35;;;;;;;0.55;0.20;;;18.50;74.00;;;;;;2229477;56;22160;-71
2021/09/20 01:19:01;;;;;;;1.33;0.30;;;18.50;74.10;;;;;;2265032;56;21982;-73
2021/09/20 01:21:28;;;;;;;1.15;0.45;;;18.50;74.00;;;;;;2205496;56;21017;-73
2021/09/20 01:23:54;;;;;;;0.60;0.30;;;18.50;74.00;;;;;;2225957;56;20990;-74
2021/09/20 01:26:21;;;;;;;0.70;0.30;;;18.50;74.10;;;;;;2445364;56;22065;-72
2021/09/20 01:28:47;;;;;;;2.65;0.37;;;18.50;74.00;;;;;;2223560;56;20969;-71
2021/09/20 01:31:13;;;;;;;0.70;0.30;;;18.50;73.90;;;;;;2231035;56;21110;-70
2021/09/20 01:33:40;;;;;;;1.35;0.30;;;18.50;73.80;;;;;;2220707;56;20961;-74
2021/09/20 01:36:06;;;;;;;0.25;0.20;;;18.40;73.80;;;;;;2223970;56;21462;-71
2021/09/20 01:38:32;;;;;;;3.45;0.50;;;18.40;73.70;;;;;;2223574;56;20982;-71
2021/09/20 01:41:01;;;;;;;0.52;0.25;;;18.40;73.60;;;;;;2223534;56;20974;-73
2021/09/20 01:43:28;;;;;;;0.50;0.30;;;18.40;73.60;;;;;;2303054;56;21077;-71
2021/09/20 01:45:54;;;;;;;0.93;0.40;;;18.40;73.60;;;;;;2229743;56;21842;-71
2021/09/20 01:48:20;;;;;;;0.75;0.30;;;18.30;73.60;;;;;;2222557;56;21005;-72
2021/09/20 01:50:46;;;;;;;0.57;0.30;;;18.30;73.60;;;;;;2294970;56;21018;-73
2021/09/20 01:53:13;;;;;;;1.55;0.40;;;18.30;73.70;;;;;;2224609;56;22038;-73
2021/09/20 01:55:39;;;;;;;0.77;0.32;;;18.30;73.80;;;;;;2445024;56;22059;-72
2021/09/20 01:58:06;;;;;;;2.25;0.30;;;18.30;73.90;;;;;;2226519;56;20978;-71
2021/09/20 02:00:33;;;;;;;1.65;0.55;;;18.30;74.60;;;;;;2226711;56;21081;-70
2021/09/20 02:02:59;;;;;;;1.35;0.50;;;18.20;73.80;;;;;;2223404;56;21515;-69
2021/09/20 02:05:26;;;;;;;3.78;0.40;;;18.20;73.90;;;;;;2222856;56;21480;-70
2021/09/20 02:07:52;;;;;;;0.98;0.43;;;18.20;73.90;;;;;;2233931;56;20986;-72
2021/09/20 02:10:18;;;;;;;0.82;0.37;;;18.20;74.00;;;;;;2307685;56;21001;-70
2021/09/20 02:12:45;;;;;;;0.98;0.40;;;18.20;74.00;;;;;;2333318;56;20994;-72
2021/09/20 02:15:11;;;;;;;1.33;0.30;;;18.20;74.10;;;;;;2223282;56;20973;-70
2021/09/20 02:17:38;;;;;;;0.73;0.30;;;18.10;74.00;;;;;;2229797;56;21118;-70
2021/09/20 02:20:05;;;;;;;1.42;0.32;;;18.10;74.10;;;;;;2394379;56;20959;-72
2021/09/20 02:22:34;;;;;;;0.85;0.40;;;18.10;74.10;;;;;;2226232;56;21060;-71
2021/09/20 02:25:02;;;;;;;0.88;0.40;;;18.10;74.10;;;;;;2223217;56;20981;-68
2021/09/20 02:27:29;;;;;;;1.75;0.32;;;18.10;74.10;;;;;;2224361;56;21021;-70
2021/09/20 02:29:55;;;;;;;2.47;0.40;;;18.10;74.10;;;;;;2346720;56;21452;-72
2021/09/20 02:32:21;;;;;;;0.75;0.32;;;18.10;74.20;;;;;;2223559;56;21018;-73
2021/09/20 02:34:48;;;;;;;1.12;0.45;;;18.10;74.30;;;;;;2261602;56;22017;-71
2021/09/20 02:37:15;;;;;;;0.62;0.35;;;18.00;74.30;;;;;;2223317;56;21522;-72
2021/09/20 02:39:41;;;;;;;0.55;0.30;;;18.00;74.30;;;;;;2378797;56;20991;-71
2021/09/20 02:42:08;;;;;;;0.98;0.30;;;18.00;74.30;;;;;;2222748;56;20969;-71
2021/09/20 02:44:34;;;;;;;1.75;0.37;;;18.00;74.30;;;;;;2223783;56;21152;-71
2021/09/20 02:47:01;;;;;;;1.02;0.30;;;18.00;74.30;;;;;;2223707;56;21024;-71
2021/09/20 02:49:27;;;;;;;0.60;0.40;;;17.90;74.30;;;;;;2223374;56;21931;-72
2021/09/20 02:51:54;;;;;;;2.60;0.50;;;17.90;74.40;;;;;;2225994;56;21345;-70
2021/09/20 02:54:20;;;;;;;1.80;0.35;;;17.90;74.50;;;;;;2299528;56;21037;-71
2021/09/20 02:56:46;;;;;;;2.58;0.40;;;17.90;74.60;;;;;;2226593;56;21018;-72
2021/09/20 02:59:12;;;;;;;1.55;0.52;;;17.80;74.60;;;;;;2223620;56;21543;-70
2021/09/20 03:01:40;;;;;;;0.93;0.45;;;17.80;74.50;;;;;;2223688;56;20992;-71
2021/09/20 03:04:06;;;;;;;0.70;0.40;;;17.80;75.20;;;;;;2330460;56;21801;-72
2021/09/20 03:06:32;;;;;;;2.25;0.52;;;17.80;74.50;;;;;;2222551;56;21969;-73
2021/09/20 03:08:58;;;;;;;0.45;0.20;;;17.80;74.70;;;;;;2353075;56;21567;-72
2021/09/20 03:11:25;;;;;;;1.00;0.40;;;17.80;74.90;;;;;;2223737;56;22027;-73
2021/09/20 03:13:51;;;;;;;2.37;0.70;;;17.70;74.90;;;;;;2223885;56;21037;-72
2021/09/20 03:16:17;;;;;;;2.03;0.40;;;17.80;74.90;;;;;;2223648;56;21781;-72
2021/09/20 03:18:43;;;;;;;0.68;0.30;;;17.70;74.80;;;;;;2224797;56;21568;-72
2021/09/20 03:21:10;;;;;;;1.17;0.50;;;17.70;74.70;;;;;;2223584;56;20946;-71
2021/09/20 03:23:36;;;;;;;1.15;0.40;;;17.70;74.80;;;;;;2444746;56;21554;-71
2021/09/20 03:26:03;;;;;;;1.87;0.50;;;17.70;74.80;;;;;;2288076;56;20967;-70
2021/09/20 03:28:29;;;;;;;0.70;0.37;;;17.70;74.90;;;;;;2225596;56;20999;-73
2021/09/20 03:30:55;;;;;;;1.33;0.47;;;17.70;75.10;;;;;;2224484;56;20950;-73
2021/09/20 03:33:21;;;;;;;0.75;0.35;;;17.60;75.10;;;;;;2395745;56;21704;-70
2021/09/20 03:35:48;;;;;;;1.17;0.45;;;17.70;75.30;;;;;;2308859;56;20982;-70
2021/09/20 03:38:14;;;;;;;1.50;0.50;;;17.60;75.30;;;;;;2223973;56;21001;-72
2021/09/20 03:40:41;;;;;;;1.45;0.47;;;17.70;75.50;;;;;;2225372;56;21494;-72
2021/09/20 03:43:07;;;;;;;1.90;0.60;;;17.70;75.60;;;;;;2222339;56;21386;-72
2021/09/20 03:45:33;;;;;;;1.23;0.40;;;17.70;75.60;;;;;;2220078;56;21039;-71
2021/09/20 03:47:59;;;;;;;1.08;0.50;;;17.70;75.60;;;;;;2218400;56;21388;-71
2021/09/20 03:50:26;;;;;;;1.02;0.40;;;17.70;75.60;;;;;;2218790;56;20981;-71
2021/09/20 03:52:52;;;;;;;2.15;0.50;;;17.70;75.60;;;;;;2225150;56;21063;-71
2021/09/20 03:55:19;;;;;;;1.83;0.57;;;17.70;75.60;;;;;;2225185;56;21108;-70
2021/09/20 03:57:45;;;;;;;1.02;0.40;;;17.70;75.70;;;;;;2222061;56;20969;-72
2021/09/20 04:00:12;;;;;;;1.10;0.40;;;17.70;75.70;;;;;;2335585;56;20977;-69
2021/09/20 04:02:38;;;;;;;1.37;0.40;;;17.70;75.70;;;;;;2226802;56;20985;-69
2021/09/20 04:05:06;;;;;;;0.95;0.40;;;17.70;75.70;;;;;;2232404;56;21110;-72
2021/09/20 04:07:32;;;;;;;2.05;0.40;;;17.70;75.80;;;;;;2208560;56;21548;-74
2021/09/20 04:09:59;;;;;;;0.93;0.50;;;17.80;76.00;;;;;;2223783;56;21477;-71
2021/09/20 04:12:25;;;;;;;1.17;0.50;;;17.70;75.90;;;;;;2222649;56;21255;-70
2021/09/20 04:14:51;;;;;;;1.00;0.40;;;17.70;76.00;;;;;;2248349;56;21266;-71
2021/09/20 04:17:18;;;;;;;1.17;0.50;;;17.70;76.00;;;;;;2222492;56;21157;-71
2021/09/20 04:19:44;;;;;;;0.68;0.40;;;17.80;76.20;;;;;;2224489;56;20977;-72
2021/09/20 04:22:10;;;;;;;1.60;0.50;;;17.70;76.10;;;;;;2335045;56;21039;-72
2021/09/20 04:24:37;;;;;;;1.58;0.50;;;17.70;76.10;;;;;;2227868;56;21925;-71
2021/09/20 04:27:03;;;;;;;1.65;0.57;;;17.70;76.10;;;;;;2224586;56;21353;-71
2021/09/20 04:29:29;;;;;;;1.55;0.65;;;17.80;76.10;;;;;;2224300;56;20974;-71
2021/09/20 04:31:56;;;;;;;0.93;0.45;;;17.80;76.10;;;;;;2224726;56;20982;-73
2021/09/20 04:34:23;;;;;;;0.82;0.40;;;17.70;75.90;;;;;;2211249;57;21070;-70
2021/09/20 04:36:49;;;;;;;1.20;0.50;;;17.80;76.00;;;;;;2224545;56;20981;-70
2021/09/20 04:39:15;;;;;;;0.85;0.40;;;17.70;75.80;;;;;;2225124;56;21045;-71
2021/09/20 04:41:42;;;;;;;1.30;0.40;;;17.80;75.90;;;;;;2224646;56;21001;-73
2021/09/20 04:44:08;;;;;;;1.05;0.43;;;17.70;75.80;;;;;;2225693;56;21001;-72
2021/09/20 04:46:35;;;;;;;0.88;0.43;;;17.70;75.90;;;;;;2228539;56;21038;-70
2021/09/20 04:49:01;;;;;;;0.62;0.30;;;17.70;75.90;;;;;;2260431;56;20971;-71
2021/09/20 04:51:27;;;;;;;0.80;0.32;;;17.70;75.90;;;;;;2222440;56;21025;-71
2021/09/20 04:53:54;;;;;;;0.55;0.30;;;17.70;75.90;;;;;;2224723;56;21477;-70
2021/09/20 04:56:20;;;;;;;1.85;0.30;;;17.80;76.10;;;;;;2222885;56;21010;-71
2021/09/20 04:58:58;;;;;;;0.75;0.40;;;17.70;75.90;;;;;;2225710;56;20982;-69
2021/09/20 05:01:24;;;;;;;1.67;0.43;;;17.70;75.70;;;;;;2222799;56;21096;-73
2021/09/20 05:03:51;;;;;;;0.80;0.40;;;17.70;75.80;;;;;;2224691;56;21578;-72
2021/09/20 05:06:17;;;;;;;1.55;0.70;;;17.70;75.80;;;;;;2362073;56;22167;-72
2021/09/20 05:08:43;;;;;;;0.95;0.50;;;17.70;75.80;;;;;;2225381;56;20993;-71
2021/09/20 05:11:10;;;;;;;0.75;0.40;;;17.70;75.90;;;;;;2224358;56;21017;-71
2021/09/20 05:13:37;;;;;;;0.70;0.40;;;17.70;76.00;;;;;;2225938;56;20994;-71
2021/09/20 05:16:03;;;;;;;0.45;0.30;;;17.70;76.10;;;;;;2221579;56;21344;-71
2021/09/20 05:18:29;;;;;;;1.30;0.50;;;17.70;76.10;;;;;;2340843;56;20959;-71
2021/09/20 05:20:56;;;;;;;2.25;0.60;;;17.70;76.10;;;;;;2226908;56;20974;-71
2021/09/20 05:23:22;;;;;;;0.95;0.50;;;17.70;76.10;;;;;;2222776;56;22381;-72
2021/09/20 05:25:49;;;;;;;0.75;0.30;;;17.80;76.20;;;;;;2227726;56;21401;-72
2021/09/20 05:28:18;;;;;;;0.88;0.50;;;17.70;76.20;;;;;;2217695;56;21099;-70
2021/09/20 05:30:44;;;;;;;2.62;0.65;;;17.80;76.20;;;;;;2221024;56;20958;-71
2021/09/20 05:33:10;;;;;;;0.98;0.57;;;17.80;76.30;;;;;;2220493;56;21097;-73
2021/09/20 05:35:36;;;;;;;1.05;0.57;;;17.80;76.70;;;;;;2222783;56;21006;-72
2021/09/20 05:38:03;;;;;;;1.42;0.50;;;17.80;76.20;;;;;;2264977;56;21010;-72
2021/09/20 05:40:29;;;;;;;2.65;0.70;;;17.80;76.20;;;;;;2231959;56;21054;-73
2021/09/20 05:42:59;;;;;;;1.92;0.40;;;17.80;76.90;;;;;;2316987;56;21013;-72
2021/09/20 05:45:26;;;;;;;0.93;0.40;;;17.80;76.20;;;;;;2222943;56;21392;-72
2021/09/20 05:47:52;;;;;;;2.62;0.68;;;17.80;76.30;;;;;;2225976;56;20950;-72
2021/09/20 05:50:19;;;;;;;3.00;1.30;;;17.90;76.40;;;;;;2443868;56;20982;-70
2021/09/20 05:52:46;;;;;;;3.90;1.95;;;17.80;76.40;;;;;;2336460;56;22246;-71
2021/09/20 05:55:13;;;;;;;3.33;1.62;;;17.80;76.40;;;;;;2346923;56;21052;-73
2021/09/20 05:57:39;;;;;;;4.15;2.12;;;17.80;76.40;;;;;;2219632;56;22019;-70
2021/09/20 06:00:06;;;;;;;3.10;1.27;;;17.80;76.40;;;;;;2225718;56;21015;-72
2021/09/20 06:02:32;;;;;;;1.98;0.88;;;17.90;76.60;;;;;;2221055;56;20984;-71
2021/09/20 06:05:00;;;;;;;2.12;0.70;;;17.90;76.40;;;;;;2224489;56;20983;-70
2021/09/20 06:07:27;;;;;;;1.17;0.50;;;17.90;76.40;;;;;;2224048;56;21226;-70
2021/09/20 06:09:53;;;;;;;1.27;0.50;;;17.90;76.40;;;;;;2220514;56;20941;-70
2021/09/20 06:12:20;;;;;;;1.33;0.40;;;17.90;76.40;;;;;;2249178;56;20965;-71
2021/09/20 06:14:46;;;;;;;1.77;0.50;;;17.90;76.40;;;;;;2294548;56;22320;-72
2021/09/20 06:17:12;;;;;;;1.00;0.50;;;17.90;76.40;;;;;;2220978;56;20945;-71
2021/09/20 06:19:39;;;;;;;1.05;0.50;;;18.00;76.50;;;;;;2222179;56;20957;-73
2021/09/20 06:22:09;;;;;;;0.73;0.47;;;17.90;76.40;;;;;;2311412;56;20981;-71
2021/09/20 06:24:36;;;;;;;1.30;0.50;;;18.00;76.50;;;;;;2211866;56;21003;-71
2021/09/20 06:27:02;;;;;;;0.90;0.45;;;18.00;76.60;;;;;;2225556;56;21003;-72
2021/09/20 06:29:29;;;;;;;1.50;0.52;;;18.00;76.70;;;;;;2225782;56;21149;-74
2021/09/20 06:31:57;;;;;;;1.95;0.65;;;18.00;76.70;;;;;;2222393;56;20977;-74
2021/09/20 06:34:23;;;;;;;1.62;0.70;;;18.00;76.70;;;;;;2224387;56;20998;-71
2021/09/20 06:36:49;;;;;;;1.62;0.68;;;18.00;76.80;;;;;;2222003;56;21080;-73
2021/09/20 06:39:16;;;;;;;2.72;0.77;;;18.00;76.70;;;;;;2222728;56;21398;-73
2021/09/20 06:41:42;;;;;;;1.60;0.73;;;18.10;76.80;;;;;;2222115;56;22078;-72
2021/09/20 06:44:09;;;;;;;1.65;0.80;;;18.10;76.80;;;;;;2227855;56;21850;-72
2021/09/20 06:46:36;;;;;;;1.30;0.70;;;18.10;76.80;;;;;;2221002;56;21432;-72
2021/09/20 06:49:04;;;;;;;1.30;0.60;;;18.10;76.80;;;;;;2322607;56;20981;-71
2021/09/20 06:51:30;;;;;;;2.40;0.55;;;18.10;76.90;;;;;;2221051;56;20981;-72
2021/09/20 06:53:57;;;;;;;1.10;0.60;;;18.10;76.90;;;;;;2224949;56;21009;-73
2021/09/20 06:56:23;;;;;;;1.40;0.60;;;18.20;77.00;;;;;;2225009;56;21023;-72
2021/09/20 06:58:52;;;;;;;1.08;0.52;;;18.20;77.00;;;;;;2220536;56;20950;-72
2021/09/20 07:01:19;;;;;;;2.03;0.80;;;18.20;76.90;;;;;;2205359;57;21427;-71
2021/09/20 07:03:45;;;;;;;1.67;1.00;;;18.20;77.00;;;;;;2222138;56;21013;-71
2021/09/20 07:06:12;;;;;;;1.87;0.85;;;18.30;77.00;;;;;;2443827;56;21397;-70
2021/09/20 07:08:38;;;;;;;1.45;0.70;;;18.30;77.50;;;;;;2222810;56;20969;-71
2021/09/20 07:11:05;;;;;;;2.05;0.80;;;18.30;76.60;;;;;;2221582;56;20957;-72
2021/09/20 07:13:31;;;;;;;1.60;0.70;;;18.30;76.40;;;;;;2222058;56;21025;-72
2021/09/20 07:15:58;;;;;;;1.27;0.57;;;18.30;76.40;;;;;;2222693;56;21342;-71
2021/09/20 07:18:24;;;;;;;1.20;0.60;;;18.30;76.40;;;;;;2224750;56;20971;-73
2021/09/20 07:20:50;;;;;;;2.15;0.60;;;18.30;76.40;;;;;;2329555;56;21030;-73
2021/09/20 07:23:17;;;;;;;0.65;0.40;;;18.30;76.40;;;;;;2220827;56;21377;-71
2021/09/20 07:25:43;;;;;;;1.35;0.50;;;18.30;76.40;;;;;;2222662;56;21025;-72
2021/09/20 07:28:09;;;;;;;0.88;0.32;;;18.30;76.30;;;;;;2228756;56;20999;-73
2021/09/20 07:30:38;;;;;;;0.75;0.40;;;18.30;76.40;;;;;;2220141;56;21033;-72
2021/09/20 07:33:04;;;;;;;1.77;0.45;;;18.30;76.40;;;;;;2221472;56;20965;-73
2021/09/20 07:35:31;;;;;;;2.35;0.40;;;18.40;76.60;;;;;;2254700;56;21058;-72
2021/09/20 07:37:57;;;;;;;0.98;0.40;;;18.30;76.50;;;;;;2224870;56;20950;-73
2021/09/20 07:40:26;;;;;;;2.17;0.50;;;18.40;76.60;;;;;;2420290;56;21002;-73
2021/09/20 07:42:53;;;;;;;1.83;0.52;;;18.40;76.50;;;;;;2267712;56;20977;-72
2021/09/20 07:45:19;;;;;;;1.42;0.70;;;18.40;76.60;;;;;;2221821;56;21105;-71
2021/09/20 07:47:46;;;;;;;0.80;0.35;;;18.40;76.70;;;;;;2221664;56;21246;-74
2021/09/20 07:50:14;;;;;;;1.42;0.50;;;18.40;76.60;;;;;;2229786;56;21018;-73
2021/09/20 07:52:40;;;;;;;0.90;0.37;;;18.40;76.40;;;;;;2223795;56;21034;-73
2021/09/20 07:55:07;;;;;;;0.75;0.30;;;18.40;76.40;;;;;;2225693;56;20947;-70
2021/09/20 07:57:33;;;;;;;0.70;0.30;;;18.50;76.30;;;;;;2224615;56;22016;-71
2021/09/20 08:00:00;;;;;;;0.50;0.30;;;18.50;76.40;;;;;;2221217;56;21060;-74
2021/09/20 08:02:26;;;;;;;2.78;0.65;;;18.50;76.50;;;;;;2210314;56;21019;-75
2021/09/20 08:04:53;;;;;;;1.12;0.52;;;18.50;76.50;;;;;;2224899;56;21139;-71
2021/09/20 08:07:20;;;;;;;1.25;0.47;;;18.50;76.40;;;;;;2219838;56;20982;-71
2021/09/20 08:09:46;;;;;;;1.10;0.40;;;18.50;76.30;;;;;;2230641;56;21464;-73
2021/09/20 08:12:13;;;;;;;1.15;0.52;;;18.60;76.40;;;;;;2334390;56;21109;-73
2021/09/20 08:14:41;;;;;;;1.83;0.60;;;18.60;76.40;;;;;;2313694;56;20989;-73
2021/09/20 08:17:08;;;;;;;1.45;0.50;;;18.60;76.40;;;;;;2225265;56;21019;-71
2021/09/20 08:19:35;;;;;;;1.73;0.65;;;18.60;76.30;;;;;;2221208;56;20981;-72
2021/09/20 08:22:01;;;;;;;5.87;2.53;;;18.60;76.20;;;;;;2220917;56;21005;-72
2021/09/20 08:24:28;;;;;;;3.45;1.37;;;18.60;76.00;;;;;;2222093;56;20989;-73
2021/09/20 08:26:54;;;;;;;2.42;1.02;;;18.60;76.00;;;;;;2225700;56;21050;-73
2021/09/20 08:29:22;;;;;;;1.85;0.77;;;18.70;76.20;;;;;;2228024;56;21002;-72
2021/09/20 08:31:49;;;;;;;1.90;0.60;;;18.70;76.10;;;;;;2224158;56;21679;-73
2021/09/20 08:34:15;;;;;;;1.42;0.57;;;18.70;76.20;;;;;;2224581;56;21018;-73
2021/09/20 08:36:47;;;;;;;0.90;0.45;;;18.70;76.20;;;;;;2220965;56;21041;-75
2021/09/20 08:39:13;;;;;;;1.87;0.60;;;18.70;75.90;;;;;;2224722;56;20983;-75
2021/09/20 08:41:41;;;;;;;1.27;0.60;;;18.70;76.10;;;;;;2221024;56;21349;-72
2021/09/20 08:44:11;;;;;;;4.60;0.50;;;18.70;76.10;;;;;;2224764;56;21065;-72
2021/09/20 08:46:39;;;;;;;1.00;0.40;;;18.70;76.20;;;;;;2221709;56;21547;-74
2021/09/20 08:49:05;;;;;;;1.90;0.57;;;18.80;76.50;;;;;;2222364;56;20941;-72
2021/09/20 08:51:32;;;;;;;1.67;0.73;;;18.80;76.60;;;;;;2222184;56;20977;-73
2021/09/20 08:53:58;;;;;;;1.83;0.60;;;18.80;76.60;;;;;;2228173;56;21021;-73
2021/09/20 08:56:24;;;;;;;1.60;0.70;;;18.90;76.70;;;;;;2234126;56;21528;-72
2021/09/20 08:58:50;;;;;;;1.10;0.50;;;18.90;76.60;;;;;;2224190;56;21800;-74
2021/09/20 09:01:16;;;;;;;1.37;0.60;;;18.90;76.50;;;;;;2223935;56;21002;-72
2021/09/20 09:03:43;;;;;;;1.05;0.50;;;19.00;76.60;;;;;;2224298;56;21996;-74
2021/09/20 09:06:09;;;;;;;1.23;0.60;;;19.00;76.60;;;;;;2223953;56;20958;-72
2021/09/20 09:08:37;;;;;;;2.90;0.68;;;19.00;76.60;;;;;;2227774;56;20995;-71
2021/09/20 09:11:12;;;;;;;1.25;0.62;;;19.10;76.60;;;;;;2271243;56;21013;-74
2021/09/20 09:13:43;;;;;;;0.73;0.37;;;19.10;76.10;;;;;;2209920;57;20950;-73
2021/09/20 09:16:21;;;;;;;1.08;0.60;;;19.20;76.10;;;;;;2204137;56;20997;-73
2021/09/20 09:19:15;;;;;;;1.48;0.50;;;19.20;75.80;;;;;;2224895;56;21763;-71
2021/09/20 09:21:42;;;;;;;1.08;0.40;;;19.20;75.70;;;;;;2224321;56;20961;-72
2021/09/20 09:24:11;;;;;;;3.15;0.73;;;19.20;76.00;;;;;;2206505;56;20958;-73
2021/09/20 09:26:38;;;;;;;1.05;0.47;;;19.20;75.90;;;;;;2204207;56;20950;-70
2021/09/20 09:29:08;;;;;;;1.02;0.43;;;19.20;75.90;;;;;;2285461;56;21015;-73
2021/09/20 09:31:36;;;;;;;1.95;0.57;;;19.20;75.90;;;;;;2225301;56;20970;-72
2021/09/20 09:34:28;;;;;;;1.02;0.60;;;19.30;76.20;;;;;;2220598;56;21047;-72
2021/09/20 09:37:13;;;;;;;1.90;0.85;;;19.30;75.40;;;;;;2222067;56;20977;-74
2021/09/20 09:39:40;;;;;;;1.37;0.65;;;19.30;75.60;;;;;;2206415;56;21053;-71
2021/09/20 09:42:29;;;;;;;1.42;0.70;;;19.40;76.40;;;;;;2362603;56;20961;-73
2021/09/20 09:44:56;;;;;;;1.60;0.70;;;19.40;75.60;;;;;;2222471;56;20989;-74
2021/09/20 09:47:27;;;;;;;1.70;0.77;;;19.40;76.30;;;;;;2221759;56;20946;-73
2021/09/20 09:50:30;;;;;;;2.10;0.90;;;19.50;76.30;;;;;;2222407;56;20992;-74
2021/09/20 09:52:57;;;;;;;1.80;0.98;;;19.50;75.60;;;;;;2225868;56;20977;-73
2021/09/20 09:55:24;;;;;;;1.62;0.62;;;19.60;76.30;;;;;;2221108;56;21349;-74
2021/09/20 09:57:51;;;;;;;1.83;0.82;;;19.60;76.40;;;;;;2249954;56;21211;-72
2021/09/20 10:00:19;;;;;;;2.15;0.82;;;19.60;76.60;;;;;;2261672;56;21027;-71
2021/09/20 10:02:46;;;;;;;2.08;0.77;;;19.70;76.70;;;;;;2210089;56;22063;-74
2021/09/20 10:05:23;;;;;;;2.30;1.00;;;19.70;77.00;;;;;;2223891;56;20998;-73
2021/09/20 10:07:50;;;;;;;1.77;0.90;;;19.80;76.90;;;;;;2221078;56;21049;-73
2021/09/20 10:10:18;;;;;;;2.55;1.00;;;19.80;77.20;;;;;;2221919;56;21025;-73
2021/09/20 10:12:46;;;;;;;3.58;1.30;;;19.90;77.10;;;;;;2225497;56;20962;-71
2021/09/20 10:15:14;;;;;;;2.62;1.10;;;20.00;76.90;;;;;;2207251;56;20986;-73
2021/09/20 10:17:40;;;;;;;2.33;1.10;;;20.10;76.50;;;;;;2225045;56;21014;-71
2021/09/20 10:20:08;;;;;;;2.22;1.02;;;20.10;76.40;;;;;;2255263;56;20979;-72
2021/09/20 10:22:35;;;;;;;2.28;1.10;;;20.10;76.50;;;;;;2247851;56;20973;-74
2021/09/20 10:25:02;;;;;;;3.12;1.20;;;20.10;76.60;;;;;;2224179;56;21667;-71
2021/09/20 10:27:29;;;;;;;3.67;1.20;;;20.20;76.50;;;;;;2219688;56;21025;-71
2021/09/20 10:30:10;;;;;;;3.35;1.42;;;20.20;76.10;;;;;;2222662;56;20989;-74
2021/09/20 10:32:40;;;;;;;2.90;1.52;;;20.20;75.70;;;;;;2226399;56;20999;-73
2021/09/20 10:35:54;;;;;;;2.67;1.52;;;20.30;76.10;;;;;;2275432;56;22348;-71
2021/09/20 10:38:26;;;;;;;2.72;1.27;;;20.40;75.40;;;;;;2223708;56;21539;-70
2021/09/20 10:54:18;;;;;;;2.55;1.30;;;20.40;76.20;;;;;;2230436;56;20986;-73
2021/09/20 10:57:16;;;;;;;2.28;0.98;;;20.90;75.70;;;;;;2305004;54;23434;-73
2021/09/20 10:59:45;;;;;;;2.35;1.25;;;20.90;75.80;;;;;;2251120;55;21014;-72
2021/09/20 11:02:19;;;;;;;2.90;1.40;;;21.00;77.40;;;;;;2258997;55;21008;-73
2021/09/20 11:04:45;;;;;;;3.08;1.30;;;21.10;77.40;;;;;;2254900;55;20919;-74
2021/09/20 11:07:20;;;;;;;2.20;1.30;;;21.20;77.30;;;;;;2289829;55;20958;-71
2021/09/20 11:09:51;;;;;;;2.80;1.52;;;21.30;77.10;;;;;;2256689;55;21370;-73
2021/09/20 11:12:23;;;;;;;2.53;1.35;;;21.20;76.90;;;;;;2262772;55;20942;-75
2021/09/20 11:15:02;;;;;;;4.72;1.55;;;21.50;76.80;;;;;;2206868;56;21030;-73
2021/09/20 11:17:45;;;;;;;2.58;1.40;;;21.60;77.00;;;;;;2262264;55;21520;-74
2021/09/20 11:20:26;;;;;;;2.95;1.50;;;21.70;75.90;;;;;;2392836;55;21452;-74
2021/09/20 11:24:18;;;;;;;3.40;1.60;;;21.70;75.40;;;;;;2313255;54;20999;-74
2021/09/20 11:26:45;;;;;;;3.10;1.33;;;21.80;74.20;;;;;;2259784;55;20978;-74
2021/09/20 11:29:11;;;;;;;2.70;1.30;;;21.90;74.90;;;;;;2260976;55;21078;-72
2021/09/20 11:31:41;;;;;;;1.87;0.90;;;21.90;74.70;;;;;;2259329;55;21041;-73
2021/09/20 11:34:07;;;;;;;2.62;1.25;;;21.90;74.70;;;;;;2257322;55;21141;-72
2021/09/20 11:36:34;;;;;;;2.53;1.30;;;21.90;74.70;;;;;;2380267;55;21639;-74
2021/09/20 11:39:13;;;;;;;2.47;1.30;;;21.90;74.60;;;;;;2258444;55;22199;-76
2021/09/20 11:41:40;;;;;;;2.70;1.50;;;22.00;73.80;;;;;;2255168;55;20966;-75
2021/09/20 11:44:06;;;;;;;3.35;1.45;;;22.00;75.60;;;;;;2258194;55;21354;-75
2021/09/20 11:46:33;;;;;;;2.90;1.50;;;22.00;75.80;;;;;;2258954;55;21454;-74
2021/09/20 11:49:05;;;;;;;3.00;1.45;;;22.10;75.60;;;;;;2256769;55;21089;-71
2021/09/20 11:51:31;;;;;;;2.83;1.67;;;22.20;75.10;;;;;;2296024;55;22018;-75
2021/09/20 11:53:57;;;;;;;3.25;1.80;;;22.20;75.70;;;;;;2258951;55;20966;-74
2021/09/20 11:56:25;;;;;;;2.75;1.48;;;22.30;75.90;;;;;;2244810;55;21032;-74
2021/09/20 11:58:57;;;;;;;3.10;1.70;;;22.40;75.70;;;;;;2234595;55;21076;-74
2021/09/20 12:01:25;;;;;;;2.70;1.50;;;22.50;74.70;;;;;;2233397;55;20957;-74
2021/09/20 12:03:55;;;;;;;3.05;1.67;;;22.50;74.70;;;;;;2242924;55;21249;-74
2021/09/20 12:06:37;;;;;;;2.72;1.50;;;22.60;74.20;;;;;;2209378;57;21099;-73
2021/09/20 12:09:03;;;;;;;3.05;1.60;;;22.60;72.20;;;;;;2212564;56;20971;-75
2021/09/20 12:11:30;;;;;;;2.72;1.48;;;22.50;73.00;;;;;;2207785;57;20943;-73
2021/09/20 12:13:56;;;;;;;3.05;1.40;;;22.50;72.80;;;;;;2257965;56;20967;-74
2021/09/20 12:16:24;;;;;;;2.25;1.23;;;22.50;72.90;;;;;;2207259;56;21090;-74
2021/09/20 12:18:50;;;;;;;2.20;1.12;;;22.50;72.90;;;;;;2208742;56;21086;-75
2021/09/20 12:21:18;;;;;;;3.12;1.60;;;22.40;73.10;;;;;;2210800;56;21013;-73
2021/09/20 12:23:49;;;;;;;2.55;1.40;;;22.40;72.90;;;;;;2228352;56;22086;-76
2021/09/20 12:26:19;;;;;;;2.40;1.23;;;22.40;72.10;;;;;;2243460;56;21085;-77
2021/09/20 12:28:51;;;;;;;2.20;1.30;;;22.30;72.30;;;;;;2449478;55;21005;-74
2021/09/20 12:31:20;;;;;;;2.83;1.60;;;22.30;72.50;;;;;;2237550;56;21489;-75
2021/09/20 12:34:09;;;;;;;2.20;1.23;;;22.20;72.90;;;;;;2231953;56;21077;-75
2021/09/20 12:44:47;;;;;;;2.22;1.02;;;22.20;72.20;;;;;;2218027;57;21058;-73
2021/09/20 12:47:16;;;;;;;2.08;0.98;;;22.20;72.00;;;;;;2262058;55;20985;-72
2021/09/20 12:49:54;;;;;;;2.22;1.05;;;22.30;73.80;;;;;;2225133;56;21549;-74
2021/09/20 12:52:33;;;;;;;3.97;1.40;;;22.30;73.80;;;;;;2240336;56;21008;-72
2021/09/20 12:55:12;;;;;;;2.58;1.30;;;22.30;73.00;;;;;;2244012;56;20977;-74
2021/09/20 12:57:51;;;;;;;2.53;1.40;;;22.20;73.80;;;;;;2264192;55;22017;-74
2021/09/20 13:00:18;;;;;;;3.55;1.60;;;22.30;73.10;;;;;;2265308;55;21427;-72
2021/09/20 13:02:44;;;;;;;2.08;1.02;;;22.30;73.90;;;;;;2290591;55;20947;-74
2021/09/20 13:05:11;;;;;;;2.70;1.40;;;22.30;74.20;;;;;;2305214;55;20974;-71
2021/09/20 13:07:37;;;;;;;2.97;1.50;;;22.30;74.30;;;;;;2253163;55;20990;-72
2021/09/20 13:10:18;;;;;;;3.95;1.48;;;22.30;74.50;;;;;;2236097;56;21516;-73
2021/09/20 13:12:46;;;;;;;2.97;1.60;;;22.40;74.70;;;;;;2321650;55;21148;-74
2021/09/20 13:15:18;;;;;;;2.87;1.65;;;22.50;75.10;;;;;;2234475;56;20961;-72